Time;durP1;ratioP1;P1;durP2;ratioP2;P2;SDS_P1;SDS_P2;PMS_P1;PMS_P2;Temp;Humidity;BMP_temperature;BMP_pressure;BME280_temperature;BME280_humidity;BME280_pressure;Samples;Min_cycle;Max_cycle;Signal;HPM_P1;HPM_P2
2023/06/06 00:01:34;;;;;;;5.55;2.97;;;;;;;11.77;100.00;101885.47;6246708;23;20016;-80
2023/06/06 00:04:00;;;;;;;5.90;3.38;;;;;;;11.48;100.00;101874.97;6246760;23;20004;-79
2023/06/06 00:06:28;;;;;;;6.07;2.75;;;;;;;11.28;100.00;101881.53;6221675;23;20004;-78
2023/06/06 00:08:54;;;;;;;5.75;3.80;;;;;;;11.06;100.00;101880.09;6222031;23;20085;-78
2023/06/06 00:11:20;;;;;;;5.97;3.50;;;;;;;10.85;100.00;101881.22;6221587;23;20344;-78
2023/06/06 00:13:49;;;;;;;4.90;3.45;;;;;;;10.68;100.00;101873.94;6221778;23;20004;-80
2023/06/06 00:16:16;;;;;;;7.57;3.35;;;;;;;10.54;100.00;101867.22;6197181;23;20103;-79
2023/06/06 00:18:45;;;;;;;5.10;3.38;;;;;;;10.38;100.00;101864.31;6246952;23;20058;-78
2023/06/06 00:21:12;;;;;;;8.32;3.05;;;;;;;10.17;100.00;101843.84;6196913;23;20008;-78
2023/06/06 00:23:38;;;;;;;6.35;3.00;;;;;;;10.20;100.00;101864.22;6196719;23;20379;-78
2023/06/06 00:26:04;;;;;;;6.43;2.90;;;;;;;10.20;100.00;101856.13;6171249;23;20015;-79
2023/06/06 00:28:29;;;;;;;5.22;3.10;;;;;;;10.21;100.00;101858.66;6196373;23;20011;-78
2023/06/06 00:30:55;;;;;;;5.93;3.30;;;;;;;10.21;100.00;101868.56;6196451;23;20433;-78
2023/06/06 00:33:21;;;;;;;6.80;3.55;;;;;;;10.11;100.00;101872.16;6196106;23;20332;-80
2023/06/06 00:35:48;;;;;;;4.63;3.35;;;;;;;9.97;100.00;101859.16;6196335;23;20008;-78
2023/06/06 00:38:14;;;;;;;6.82;3.90;;;;;;;9.95;100.00;101873.72;6221637;23;20004;-78
2023/06/06 00:40:39;;;;;;;5.60;3.30;;;;;;;9.97;100.00;101869.06;6196388;23;20062;-78
2023/06/06 00:43:05;;;;;;;5.43;3.67;;;;;;;9.85;100.00;101865.72;6221421;23;20004;-78
2023/06/06 00:45:31;;;;;;;7.53;3.40;;;;;;;9.86;100.00;101872.75;6221241;23;20069;-78
2023/06/06 00:47:59;;;;;;;6.18;3.38;;;;;;;9.80;100.00;101870.66;6196172;23;20015;-78
2023/06/06 00:50:25;;;;;;;5.93;3.05;;;;;;;9.69;100.00;101875.19;6196597;23;20031;-78
2023/06/06 00:52:52;;;;;;;5.45;3.47;;;;;;;9.67;100.00;101865.59;6196145;23;20001;-80
2023/06/06 00:55:18;;;;;;;5.28;3.38;;;;;;;9.73;100.00;101862.31;6221196;23;20004;-78
2023/06/06 00:57:47;;;;;;;4.80;3.10;;;;;;;9.79;100.00;101860.88;6246530;23;20000;-79
2023/06/06 01:00:14;;;;;;;5.85;3.75;;;;;;;9.74;100.00;101863.16;6246153;23;20083;-79
2023/06/06 01:02:43;;;;;;;6.53;3.78;;;;;;;9.66;100.00;101870.09;6195760;23;20012;-79
2023/06/06 01:05:10;;;;;;;6.97;3.58;;;;;;;9.58;100.00;101872.66;6197472;23;20012;-79
2023/06/06 01:07:36;;;;;;;8.50;4.70;;;;;;;9.45;100.00;101859.53;6195983;23;20001;-79
2023/06/06 01:10:05;;;;;;;6.70;3.45;;;;;;;9.47;100.00;101872.78;6246030;23;20421;-80
2023/06/06 01:12:47;;;;;;;7.00;4.03;;;;;;;9.32;100.00;101875.06;6246321;23;20004;-79
2023/06/06 01:15:18;;;;;;;7.07;3.60;;;;;;;9.29;100.00;101871.78;6246095;23;20007;-79
2023/06/06 01:17:46;;;;;;;6.78;3.60;;;;;;;9.23;100.00;101866.03;6195923;23;20008;-79
2023/06/06 01:20:12;;;;;;;4.82;3.38;;;;;;;9.29;100.00;101869.97;6196189;23;20015;-80
2023/06/06 01:22:39;;;;;;;6.15;3.38;;;;;;;9.21;100.00;101845.69;6246171;23;20074;-79
2023/06/06 01:25:06;;;;;;;6.55;3.58;;;;;;;9.33;100.00;101871.38;6245887;23;20023;-79
2023/06/06 01:27:33;;;;;;;6.43;3.65;;;;;;;9.22;100.00;101864.31;6196432;23;20004;-80
2023/06/06 01:30:02;;;;;;;6.50;3.08;;;;;;;9.10;100.00;101870.78;6220986;23;20012;-80
2023/06/06 01:32:36;;;;;;;5.57;3.40;;;;;;;9.15;100.00;101863.16;6221899;23;20012;-79
2023/06/06 01:35:10;;;;;;;6.50;3.47;;;;;;;9.14;100.00;101871.38;6220951;23;20053;-79
2023/06/06 01:37:45;;;;;;;5.80;3.65;;;;;;;9.11;100.00;101866.28;6195644;23;20039;-78
2023/06/06 01:40:11;;;;;;;6.38;3.55;;;;;;;8.98;100.00;101863.84;6246202;23;20318;-78
2023/06/06 01:42:42;;;;;;;5.68;3.58;;;;;;;8.86;100.00;101867.63;6245863;23;20007;-78
2023/06/06 01:45:08;;;;;;;6.10;3.40;;;;;;;8.77;100.00;101869.31;6196377;23;20012;-82
2023/06/06 01:47:34;;;;;;;5.25;3.10;;;;;;;8.69;100.00;101867.31;6195610;23;20012;-80
2023/06/06 01:50:03;;;;;;;4.57;3.03;;;;;;;8.65;100.00;101865.88;6195648;23;20039;-79
2023/06/06 01:52:29;;;;;;;7.10;3.60;;;;;;;8.56;100.00;101866.69;6245927;23;20134;-80
2023/06/06 01:54:58;;;;;;;5.90;3.72;;;;;;;8.58;100.00;101862.06;6195628;23;20055;-80
2023/06/06 01:57:25;;;;;;;6.30;3.58;;;;;;;8.56;100.00;101867.53;6195796;23;20332;-80
2023/06/06 01:59:51;;;;;;;7.03;3.67;;;;;;;8.49;100.00;101860.16;6195555;23;20014;-80
2023/06/06 02:02:19;;;;;;;6.68;3.55;;;;;;;8.39;100.00;101849.44;6170622;23;20031;-80
2023/06/06 02:04:44;;;;;;;5.75;3.25;;;;;;;8.49;100.00;101862.84;6171009;23;20008;-79
2023/06/06 02:07:16;;;;;;;6.43;3.35;;;;;;;8.42;100.00;101859.03;6220079;23;20012;-79
2023/06/06 02:09:43;;;;;;;6.40;3.53;;;;;;;8.29;100.00;101857.38;6195848;23;20036;-79
2023/06/06 02:12:09;;;;;;;8.07;4.20;;;;;;;8.21;100.00;101851.84;6195447;23;20008;-79
2023/06/06 02:14:35;;;;;;;5.60;3.47;;;;;;;8.21;100.00;101867.09;6195130;23;20417;-80
2023/06/06 02:17:03;;;;;;;7.30;3.67;;;;;;;8.17;100.00;101860.28;6170485;23;20031;-80
2023/06/06 02:19:31;;;;;;;5.47;3.40;;;;;;;8.15;100.00;101857.75;6220464;23;20137;-80
2023/06/06 02:21:59;;;;;;;6.63;3.33;;;;;;;8.14;100.00;101861.41;6172446;23;20016;-80
2023/06/06 02:24:25;;;;;;;6.07;3.10;;;;;;;8.12;100.00;101860.66;6170471;23;20460;-79
2023/06/06 02:26:54;;;;;;;6.93;3.60;;;;;;;8.06;100.00;101859.38;6170434;23;20013;-79
2023/06/06 02:29:23;;;;;;;7.63;3.35;;;;;;;7.96;100.00;101853.09;6170451;23;20012;-79
2023/06/06 02:31:53;;;;;;;10.45;3.40;;;;;;;7.85;100.00;101851.34;6220770;23;20000;-79
2023/06/06 02:34:19;;;;;;;6.00;3.55;;;;;;;7.69;100.00;101829.56;6220212;23;20318;-78
2023/06/06 02:36:45;;;;;;;7.10;3.63;;;;;;;7.74;100.00;101843.41;6170361;23;20015;-80
2023/06/06 02:39:11;;;;;;;6.10;3.40;;;;;;;7.75;100.00;101850.44;6195363;23;20012;-80
2023/06/06 02:41:36;;;;;;;5.57;3.72;;;;;;;7.70;100.00;101841.97;6170367;23;20329;-81
2023/06/06 02:44:03;;;;;;;6.72;3.53;;;;;;;7.72;100.00;101856.06;6170355;23;20011;-80
2023/06/06 02:46:32;;;;;;;7.28;3.20;;;;;;;7.68;100.00;101854.63;6195328;23;20012;-80
2023/06/06 02:48:58;;;;;;;5.47;3.05;;;;;;;7.63;100.00;101843.47;6170671;23;20019;-80
2023/06/06 02:51:24;;;;;;;6.70;3.35;;;;;;;7.69;100.00;101845.63;6170290;23;20032;-80
2023/06/06 02:53:50;;;;;;;7.47;3.90;;;;;;;7.71;100.00;101846.34;6170244;23;20464;-79
2023/06/06 02:56:16;;;;;;;6.65;3.90;;;;;;;7.69;100.00;101849.13;6170180;23;20008;-79
2023/06/06 02:58:42;;;;;;;6.63;3.35;;;;;;;7.69;100.00;101854.50;6220223;23;20365;-79
2023/06/06 03:01:12;;;;;;;6.47;3.25;;;;;;;7.67;100.00;101847.56;6185680;23;20023;-79
2023/06/06 03:03:41;;;;;;;4.93;3.40;;;;;;;7.66;100.00;101841.38;6245213;23;20008;-79
2023/06/06 03:06:06;;;;;;;7.22;3.67;;;;;;;7.65;100.00;101833.47;6244908;23;20000;-79
2023/06/06 03:08:33;;;;;;;6.68;3.70;;;;;;;7.63;100.00;101836.28;6194841;23;20008;-79
2023/06/06 03:10:59;;;;;;;5.55;3.55;;;;;;;7.59;100.00;101839.34;6219493;23;20004;-79
2023/06/06 03:13:25;;;;;;;6.38;2.97;;;;;;;7.62;100.00;101847.97;6194731;23;20451;-78
2023/06/06 03:15:51;;;;;;;8.35;3.50;;;;;;;7.64;100.00;101846.00;6244872;23;20008;-80
2023/06/06 03:18:18;;;;;;;6.63;3.67;;;;;;;7.60;100.00;101841.91;6194720;23;20004;-80
2023/06/06 03:20:45;;;;;;;5.68;3.47;;;;;;;7.58;100.00;101837.66;6220088;23;20004;-79
2023/06/06 03:23:12;;;;;;;7.20;3.83;;;;;;;7.61;100.00;101840.91;6245107;23;20014;-79
2023/06/06 03:25:44;;;;;;;8.18;3.17;;;;;;;7.66;100.00;101838.69;6194388;23;20007;-79
2023/06/06 03:28:11;;;;;;;7.65;3.85;;;;;;;7.69;100.00;101840.25;6194787;23;20019;-80
2023/06/06 03:30:37;;;;;;;5.78;3.28;;;;;;;7.71;100.00;101839.16;6194748;23;20337;-80
2023/06/06 03:33:06;;;;;;;6.82;3.88;;;;;;;7.72;100.00;101829.28;6169966;23;20015;-79
2023/06/06 03:35:33;;;;;;;7.03;3.38;;;;;;;7.74;100.00;101829.16;6220243;23;20047;-80
2023/06/06 03:37:59;;;;;;;6.57;3.72;;;;;;;7.75;100.00;101845.09;6194650;23;20415;-80
2023/06/06 03:40:25;;;;;;;7.65;3.35;;;;;;;7.70;100.00;101844.66;6170010;23;20015;-80
2023/06/06 03:42:51;;;;;;;7.15;4.05;;;;;;;7.67;100.00;101847.56;6194504;23;20000;-81
2023/06/06 03:45:17;;;;;;;6.78;4.15;;;;;;;7.55;100.00;101811.16;6194588;23;20007;-80
2023/06/06 03:47:44;;;;;;;6.30;4.05;;;;;;;7.78;100.00;101843.97;6194705;23;20012;-80
2023/06/06 03:50:10;;;;;;;7.47;4.38;;;;;;;7.80;100.00;101848.22;6219684;23;20016;-80
2023/06/06 03:52:39;;;;;;;3.28;2.28;;;;;;;7.79;100.00;101840.34;6169811;23;20463;-80
2023/06/06 03:55:05;;;;;;;6.68;3.53;;;;;;;7.81;100.00;101833.88;6220278;23;20000;-80
2023/06/06 03:57:30;;;;;;;8.80;4.18;;;;;;;7.90;100.00;101843.78;6194501;23;20057;-80
2023/06/06 03:59:56;;;;;;;6.32;3.53;;;;;;;7.87;100.00;101838.69;6219362;23;20019;-80
2023/06/06 04:02:22;;;;;;;6.85;3.67;;;;;;;7.87;100.00;101840.53;6194677;23;20011;-80
2023/06/06 04:04:50;;;;;;;7.22;3.70;;;;;;;7.72;100.00;101821.25;6169747;23;20436;-79
2023/06/06 04:07:16;;;;;;;6.88;3.67;;;;;;;7.78;100.00;101844.84;6220107;23;20447;-79
2023/06/06 04:09:42;;;;;;;5.93;3.08;;;;;;;7.75;100.00;101833.53;6169700;23;20008;-80
2023/06/06 04:12:10;;;;;;;7.63;3.67;;;;;;;7.65;100.00;101812.06;6219466;23;19996;-83
2023/06/06 04:14:36;;;;;;;5.65;2.88;;;;;;;7.83;100.00;101839.94;6195120;23;20008;-81
2023/06/06 04:17:02;;;;;;;7.05;3.58;;;;;;;7.83;100.00;101847.09;6169762;23;20103;-82
2023/06/06 04:19:28;;;;;;;6.13;3.40;;;;;;;7.82;100.00;101842.75;6194447;23;20466;-80
2023/06/06 04:21:58;;;;;;;7.15;3.70;;;;;;;7.85;100.00;101848.69;6194584;23;20010;-80
2023/06/06 04:24:26;;;;;;;6.80;3.13;;;;;;;7.86;100.00;101842.34;6194499;23;20376;-81
2023/06/06 04:26:52;;;;;;;6.75;3.65;;;;;;;7.91;100.00;101842.81;6193838;23;20010;-81
2023/06/06 04:29:18;;;;;;;8.45;3.80;;;;;;;8.02;100.00;101838.34;6194536;23;20012;-81
2023/06/06 04:31:45;;;;;;;6.28;4.00;;;;;;;8.07;100.00;101839.66;6244377;23;20000;-80
2023/06/06 04:34:12;;;;;;;6.03;3.38;;;;;;;8.11;100.00;101845.59;6219231;23;20030;-81
2023/06/06 04:36:38;;;;;;;5.60;3.03;;;;;;;8.17;100.00;101845.03;6219524;23;20008;-82
2023/06/06 04:39:08;;;;;;;6.88;3.72;;;;;;;8.19;100.00;101847.59;6195894;23;20011;-80
2023/06/06 04:41:34;;;;;;;6.00;3.50;;;;;;;8.20;100.00;101843.94;6196949;23;20022;-80
2023/06/06 04:44:04;;;;;;;6.22;3.25;;;;;;;8.30;100.00;101845.66;6196169;23;20103;-82
2023/06/06 04:46:29;;;;;;;6.95;3.63;;;;;;;8.46;100.00;101849.72;6246292;23;20000;-79
2023/06/06 04:48:56;;;;;;;6.97;4.05;;;;;;;8.51;100.00;101847.50;6196228;23;20093;-79
2023/06/06 04:51:29;;;;;;;5.78;3.17;;;;;;;8.64;100.00;101847.25;6221337;23;20032;-80
2023/06/06 04:53:57;;;;;;;6.72;3.45;;;;;;;8.72;100.00;101837.53;6221912;23;19996;-81
2023/06/06 04:56:23;;;;;;;5.43;3.40;;;;;;;9.18;100.00;101851.28;6220946;23;20333;-80
2023/06/06 04:58:52;;;;;;;6.88;3.25;;;;;;;9.34;100.00;101845.38;6196108;23;20066;-79
2023/06/06 05:01:23;;;;;;;7.85;3.38;;;;;;;9.49;100.00;101843.97;6222265;23;20015;-80
2023/06/06 05:03:49;;;;;;;6.50;3.47;;;;;;;9.77;100.00;101846.78;6196413;23;20035;-80
2023/06/06 05:06:15;;;;;;;6.38;3.63;;;;;;;10.24;100.00;101844.09;6221197;23;20015;-80
2023/06/06 05:08:46;;;;;;;5.28;3.38;;;;;;;10.91;100.00;101845.63;6196005;23;20011;-81
2023/06/06 05:11:13;;;;;;;7.93;3.40;;;;;;;11.52;100.00;101843.19;6197164;23;20011;-80
2023/06/06 05:13:39;;;;;;;5.10;3.13;;;;;;;12.00;100.00;101841.91;6195496;23;20031;-79
2023/06/06 05:16:07;;;;;;;5.22;3.35;;;;;;;12.47;100.00;101852.28;6221055;23;20004;-79
2023/06/06 05:18:33;;;;;;;6.95;2.80;;;;;;;12.90;100.00;101839.63;6221389;23;20012;-81
2023/06/06 05:21:03;;;;;;;5.82;2.95;;;;;;;13.28;100.00;101845.44;6195958;23;20047;-80
2023/06/06 05:23:31;;;;;;;4.13;2.88;;;;;;;13.62;100.00;101839.88;6221856;23;20005;-80
2023/06/06 05:25:58;;;;;;;4.93;3.20;;;;;;;13.98;99.03;101837.66;6195822;23;20425;-80
2023/06/06 05:28:24;;;;;;;5.00;2.67;;;;;;;14.40;94.89;101843.81;6195814;23;20436;-80
2023/06/06 05:30:54;;;;;;;5.32;3.20;;;;;;;14.71;92.17;101833.91;6195729;23;20004;-79
2023/06/06 05:33:19;;;;;;;5.90;3.45;;;;;;;15.06;89.46;101842.50;6246108;23;20435;-80
2023/06/06 05:35:47;;;;;;;4.68;3.05;;;;;;;15.29;85.19;101842.50;6195754;23;20008;-80
2023/06/06 05:38:14;;;;;;;4.63;2.92;;;;;;;15.46;83.82;101832.41;6221223;23;20008;-80
2023/06/06 05:40:40;;;;;;;5.47;4.05;;;;;;;15.61;81.18;101840.56;6221023;23;20189;-80
2023/06/06 05:43:06;;;;;;;4.68;3.28;;;;;;;15.87;79.99;101845.59;6195609;23;20421;-80
2023/06/06 05:45:32;;;;;;;4.93;2.72;;;;;;;16.20;76.97;101846.13;6194266;23;20095;-80
2023/06/06 05:47:58;;;;;;;5.57;3.20;;;;;;;16.54;76.52;101847.44;6193947;23;20012;-80
2023/06/06 05:50:24;;;;;;;5.10;3.10;;;;;;;16.88;73.89;101844.16;6195084;23;20038;-80
2023/06/06 05:52:52;;;;;;;6.95;4.00;;;;;;;17.21;71.87;101834.66;6221551;23;20091;-79
2023/06/06 05:55:34;;;;;;;3.83;3.05;;;;;;;17.54;70.65;101844.00;6219043;23;20004;-79
2023/06/06 05:58:01;;;;;;;7.43;3.28;;;;;;;17.86;68.14;101836.34;6251286;23;20004;-81
2023/06/06 06:00:28;;;;;;;4.95;3.10;;;;;;;18.13;66.12;101847.41;6219457;23;20015;-80
2023/06/06 06:02:57;;;;;;;4.57;3.30;;;;;;;18.42;63.38;101841.72;6193996;23;20012;-81
2023/06/06 06:05:28;;;;;;;4.30;2.88;;;;;;;18.64;62.54;101833.44;6193880;23;20011;-81
2023/06/06 06:08:04;;;;;;;5.97;3.38;;;;;;;18.72;60.71;101835.13;6244289;23;20062;-81
2023/06/06 06:10:39;;;;;;;4.72;3.42;;;;;;;18.83;60.80;101843.59;6244140;23;20012;-80
2023/06/06 06:13:06;;;;;;;5.57;2.67;;;;;;;19.07;58.85;101836.72;6193339;23;20015;-79
2023/06/06 06:15:33;;;;;;;5.00;3.60;;;;;;;19.30;58.17;101835.53;6193591;23;20012;-80
2023/06/06 06:17:59;;;;;;;5.25;3.75;;;;;;;19.51;59.79;101834.50;6219075;23;20012;-80
2023/06/06 06:20:25;;;;;;;3.75;2.85;;;;;;;19.96;58.67;101840.19;6219048;23;19996;-81
2023/06/06 06:22:50;;;;;;;6.85;3.53;;;;;;;20.20;55.70;101836.78;6193851;23;20058;-80
2023/06/06 06:25:16;;;;;;;6.63;3.67;;;;;;;20.37;55.61;101831.69;6193436;23;20012;-80
2023/06/06 06:27:43;;;;;;;10.15;3.42;;;;;;;20.54;53.88;101842.19;6243482;23;20008;-80
2023/06/06 06:30:10;;;;;;;4.88;2.90;;;;;;;20.61;53.70;101840.25;6193835;23;20003;-81
2023/06/06 06:32:42;;;;;;;5.55;3.60;;;;;;;20.69;53.26;101839.19;6193740;23;20074;-80
2023/06/06 06:35:08;;;;;;;4.18;3.03;;;;;;;20.79;53.88;101837.66;6218426;23;20008;-80
2023/06/06 06:37:37;;;;;;;6.28;3.58;;;;;;;20.97;52.59;101834.22;6218523;23;20417;-79
2023/06/06 06:40:10;;;;;;;4.18;3.13;;;;;;;21.21;52.06;101840.78;6194041;23;20503;-80
2023/06/06 06:42:43;;;;;;;5.78;3.40;;;;;;;21.49;51.61;101834.97;6243708;23;20057;-80
2023/06/06 06:45:13;;;;;;;6.28;2.80;;;;;;;21.83;50.79;101831.94;6244460;23;20000;-80
2023/06/06 06:47:40;;;;;;;6.45;3.65;;;;;;;21.98;49.85;101828.84;6193314;23;20004;-79
2023/06/06 06:50:06;;;;;;;5.97;3.17;;;;;;;22.36;48.23;101826.78;6243220;23;20027;-80
2023/06/06 06:52:35;;;;;;;5.25;3.22;;;;;;;22.59;46.83;101828.81;6243482;23;20076;-78
2023/06/06 06:55:01;;;;;;;5.43;2.88;;;;;;;22.72;46.88;101826.97;6244075;23;20302;-79
2023/06/06 06:57:28;;;;;;;5.45;2.67;;;;;;;22.94;46.62;101828.16;6218736;23;20310;-79
2023/06/06 07:00:00;;;;;;;5.43;3.40;;;;;;;23.19;47.29;101830.78;6186035;22;1333919;-79
2023/06/06 07:02:27;;;;;;;6.47;3.40;;;;;;;23.76;47.20;101834.97;6194348;23;20016;-79
2023/06/06 07:04:53;;;;;;;6.35;3.38;;;;;;;24.21;42.23;101829.69;6194532;23;20008;-79
2023/06/06 07:07:21;;;;;;;8.68;3.63;;;;;;;24.27;43.10;101830.66;6219778;23;20034;-79
2023/06/06 07:09:47;;;;;;;5.10;3.55;;;;;;;24.22;44.48;101831.38;6194197;23;20012;-79
2023/06/06 07:12:13;;;;;;;5.80;4.10;;;;;;;24.41;44.50;101831.22;6194531;23;20039;-80
2023/06/06 07:14:39;;;;;;;4.68;3.33;;;;;;;24.66;42.32;101817.19;6194659;23;20099;-81
2023/06/06 07:17:07;;;;;;;4.55;3.35;;;;;;;24.64;42.63;101831.19;6244760;23;20004;-81
2023/06/06 07:19:33;;;;;;;4.82;2.42;;;;;;;24.72;42.35;101832.72;6219608;23;20004;-81
2023/06/06 07:21:59;;;;;;;5.72;2.78;;;;;;;24.90;42.28;101834.44;6194710;23;20012;-80
2023/06/06 07:24:25;;;;;;;5.60;3.92;;;;;;;25.18;42.20;101831.72;6169539;23;20055;-82
2023/06/06 07:26:53;;;;;;;6.55;3.50;;;;;;;25.18;40.69;101826.19;6195530;23;20066;-79
2023/06/06 07:29:19;;;;;;;5.78;3.60;;;;;;;25.28;40.44;101833.00;6194355;23;20008;-81
2023/06/06 07:31:44;;;;;;;5.00;3.30;;;;;;;25.45;41.06;101823.63;6194482;23;20008;-81
2023/06/06 07:34:10;;;;;;;5.88;3.78;;;;;;;25.79;41.40;101831.91;6194115;23;20008;-79
2023/06/06 07:36:36;;;;;;;5.05;3.78;;;;;;;26.38;42.08;101819.53;6194173;23;20000;-80
2023/06/06 07:39:05;;;;;;;6.43;3.72;;;;;;;27.01;40.14;101831.88;6219952;23;20091;-82
2023/06/06 07:41:31;;;;;;;6.03;4.05;;;;;;;27.40;36.85;101843.63;6219550;23;20459;-81
2023/06/06 07:43:58;;;;;;;5.05;3.95;;;;;;;27.35;36.03;101826.16;6193787;23;20032;-81
2023/06/06 07:46:24;;;;;;;4.95;3.38;;;;;;;27.12;35.94;101830.06;6244849;23;20034;-81
2023/06/06 07:48:50;;;;;;;5.05;4.05;;;;;;;26.78;37.25;101823.91;6219723;23;20058;-79
2023/06/06 07:51:16;;;;;;;5.63;2.95;;;;;;;26.75;36.77;101822.50;6219358;23;20011;-79
2023/06/06 07:53:43;;;;;;;5.45;3.25;;;;;;;26.94;37.43;101820.25;6194353;23;20008;-78
2023/06/06 07:56:10;;;;;;;4.57;3.17;;;;;;;27.22;36.67;101826.59;6194222;23;20297;-78
2023/06/06 07:58:43;;;;;;;4.70;3.45;;;;;;;27.47;35.87;101832.38;6193221;23;20436;-79
2023/06/06 08:01:12;;;;;;;4.97;3.67;;;;;;;27.71;36.25;101829.25;6194114;23;20097;-79
2023/06/06 08:03:38;;;;;;;7.22;3.47;;;;;;;27.92;34.65;101832.97;6218549;23;20329;-85
2023/06/06 08:06:05;;;;;;;5.30;3.25;;;;;;;27.70;35.88;101831.16;6194445;23;20433;-85
2023/06/06 08:08:31;;;;;;;6.38;3.58;;;;;;;27.93;36.53;101831.91;6218897;23;20019;-88
2023/06/06 08:10:57;;;;;;;7.47;4.07;;;;;;;28.01;34.89;101823.94;6194154;23;20004;-84
2023/06/06 08:13:25;;;;;;;4.50;3.92;;;;;;;28.34;35.58;101823.81;6219835;23;20062;-78
2023/06/06 08:15:50;;;;;;;4.75;3.03;;;;;;;28.87;33.55;101828.22;6196093;23;20004;-78
2023/06/06 08:18:16;;;;;;;4.03;3.55;;;;;;;29.02;34.49;101826.56;6196283;23;20061;-78
2023/06/06 08:20:42;;;;;;;5.20;3.42;;;;;;;29.20;32.55;101826.06;6196386;23;20312;-78
2023/06/06 08:23:07;;;;;;;5.18;3.88;;;;;;;29.34;33.98;101831.91;6221314;23;20008;-78
2023/06/06 08:25:37;;;;;;;4.68;3.80;;;;;;;29.73;33.00;101812.78;6246511;23;20043;-77
2023/06/06 08:28:03;;;;;;;6.10;4.20;;;;;;;30.12;32.25;101812.16;6196753;23;20032;-78
2023/06/06 08:30:28;;;;;;;4.55;3.63;;;;;;;30.38;32.07;101820.41;6196172;23;20007;-78
2023/06/06 08:32:54;;;;;;;6.75;3.78;;;;;;;30.77;31.91;101814.94;6221182;23;20010;-78
2023/06/06 08:35:20;;;;;;;6.47;4.43;;;;;;;31.02;29.94;101819.53;6196284;23;20012;-79
2023/06/06 08:37:47;;;;;;;5.97;4.30;;;;;;;30.92;31.66;101807.66;6221249;23;19996;-78
2023/06/06 08:40:15;;;;;;;7.32;4.25;;;;;;;31.01;30.82;101798.41;6221265;23;20033;-78
2023/06/06 08:42:46;;;;;;;8.07;4.28;;;;;;;31.21;30.62;101805.78;6195973;23;20008;-77
2023/06/06 08:45:13;;;;;;;6.53;4.15;;;;;;;31.71;29.52;101808.44;6246050;23;20059;-77
2023/06/06 08:47:40;;;;;;;8.98;3.75;;;;;;;31.78;28.62;101808.91;6248238;23;20010;-77
2023/06/06 08:50:07;;;;;;;6.88;3.97;;;;;;;32.04;29.08;101812.28;6195579;23;20011;-77
2023/06/06 08:52:37;;;;;;;5.70;4.47;;;;;;;31.97;28.21;101812.63;6245931;23;20073;-78
2023/06/06 08:55:06;;;;;;;5.93;3.80;;;;;;;32.02;29.07;101802.56;6246101;23;20444;-77
2023/06/06 08:57:33;;;;;;;5.47;4.18;;;;;;;32.30;27.83;101803.63;6220116;23;20012;-78
2023/06/06 09:00:00;;;;;;;4.75;4.05;;;;;;;32.52;27.78;101803.09;6195801;23;20380;-77
2023/06/06 09:02:32;;;;;;;6.78;4.03;;;;;;;32.71;26.42;101805.88;6221467;23;20508;-77
2023/06/06 09:05:01;;;;;;;5.03;3.80;;;;;;;32.11;27.06;101806.38;6221575;23;20067;-78
2023/06/06 09:07:28;;;;;;;6.10;4.03;;;;;;;31.57;27.20;101807.44;6195853;23;20039;-77
2023/06/06 09:09:54;;;;;;;7.40;4.68;;;;;;;31.21;28.35;101802.19;6246288;23;20003;-78
2023/06/06 09:12:19;;;;;;;7.93;4.25;;;;;;;31.42;28.70;101800.91;6170870;23;20012;-78
2023/06/06 09:14:45;;;;;;;7.18;4.38;;;;;;;31.50;26.91;101786.38;6195624;23;20332;-78
2023/06/06 09:17:17;;;;;;;6.00;4.20;;;;;;;31.44;28.83;101801.47;6220707;23;20007;-78
2023/06/06 09:19:46;;;;;;;4.82;4.20;;;;;;;31.80;27.97;101801.09;6195743;23;20004;-79
2023/06/06 09:22:12;;;;;;;7.38;4.07;;;;;;;31.69;27.18;101797.59;6245838;23;20010;-78
2023/06/06 09:24:44;;;;;;;6.18;3.70;;;;;;;31.56;27.28;101794.69;6245803;23;20008;-78
2023/06/06 09:27:29;;;;;;;6.72;4.20;;;;;;;31.49;27.07;101781.97;6170965;23;20095;-78
2023/06/06 09:29:55;;;;;;;4.35;3.95;;;;;;;31.74;27.62;101797.53;6195968;23;20004;-78
2023/06/06 09:32:29;;;;;;;4.10;3.17;;;;;;;32.01;27.97;101804.53;6195507;23;20391;-78
2023/06/06 09:34:55;;;;;;;4.72;3.95;;;;;;;32.28;27.00;101800.31;6246134;23;20001;-79
2023/06/06 09:37:22;;;;;;;4.07;3.60;;;;;;;32.59;26.96;101800.78;6220696;23;20083;-80
2023/06/06 09:40:10;;;;;;;4.53;3.78;;;;;;;32.61;26.96;101793.78;6220760;23;20088;-79
2023/06/06 09:42:38;;;;;;;4.03;3.17;;;;;;;32.24;26.16;101788.13;6220890;23;20004;-78
2023/06/06 09:45:22;;;;;;;6.15;3.97;;;;;;;31.34;27.43;101782.06;6245745;23;20015;-79
2023/06/06 09:47:48;;;;;;;4.53;3.50;;;;;;;31.11;27.14;101792.78;6245697;23;20042;-79
2023/06/06 09:50:15;;;;;;;3.78;3.20;;;;;;;31.22;27.21;101790.75;6195556;23;20502;-79
2023/06/06 09:52:42;;;;;;;7.38;4.10;;;;;;;31.23;28.42;101803.56;6220493;23;20007;-79
2023/06/06 09:55:09;;;;;;;6.13;3.20;;;;;;;31.54;26.69;101794.97;6220482;23;20012;-79
2023/06/06 09:57:36;;;;;;;4.63;3.72;;;;;;;30.94;27.56;101797.94;6220707;23;20061;-79
2023/06/06 10:00:15;;;;;;;3.90;3.22;;;;;;;30.60;28.69;101803.38;6220285;23;20015;-79
2023/06/06 10:02:48;;;;;;;3.60;2.95;;;;;;;30.97;26.81;101811.25;6221549;23;20440;-79
2023/06/06 10:05:15;;;;;;;4.35;3.67;;;;;;;30.76;28.26;101804.94;6170495;23;20455;-79
2023/06/06 10:07:44;;;;;;;4.70;4.18;;;;;;;31.44;28.27;101807.03;6220881;23;20012;-79
2023/06/06 10:10:15;;;;;;;6.05;3.70;;;;;;;31.94;27.23;101802.09;6245565;23;20034;-78
2023/06/06 10:12:41;;;;;;;4.07;3.08;;;;;;;31.86;26.82;101799.09;6245248;23;20030;-79
2023/06/06 10:15:11;;;;;;;5.40;3.33;;;;;;;31.61;26.78;101802.97;6195279;23;20014;-78
2023/06/06 10:17:39;;;;;;;6.32;3.50;;;;;;;31.11;27.54;101783.63;6245261;23;20009;-78
2023/06/06 10:20:09;;;;;;;3.40;3.03;;;;;;;31.05;27.83;101804.25;6245360;23;20018;-79
2023/06/06 10:22:35;;;;;;;4.35;3.22;;;;;;;30.74;27.74;101800.81;6196461;23;20070;-78
2023/06/06 10:25:03;;;;;;;5.80;3.80;;;;;;;30.93;28.38;101793.47;6195136;23;20012;-78
2023/06/06 10:27:52;;;;;;;7.03;3.63;;;;;;;31.44;28.01;101803.41;6194960;23;20015;-77
2023/06/06 10:30:26;;;;;;;4.82;3.80;;;;;;;31.45;27.79;101807.84;6198925;23;20433;-78
2023/06/06 10:33:25;;;;;;;5.82;3.47;;;;;;;31.72;27.03;101810.09;6220289;23;20004;-78
2023/06/06 10:35:56;;;;;;;5.72;3.75;;;;;;;31.48;28.04;101788.63;6208525;23;20008;-77
2023/06/06 10:38:22;;;;;;;4.85;3.80;;;;;;;31.63;27.98;101803.53;6245399;23;20004;-79
2023/06/06 10:40:53;;;;;;;5.03;4.05;;;;;;;31.62;27.65;101790.72;6195032;23;20012;-78
2023/06/06 10:43:20;;;;;;;4.63;3.38;;;;;;;31.90;27.51;101797.38;6198317;23;20031;-78
2023/06/06 10:45:49;;;;;;;4.75;3.90;;;;;;;31.87;27.17;101801.59;6219685;23;20119;-75
2023/06/06 10:48:18;;;;;;;6.88;3.90;;;;;;;31.76;27.44;101797.25;6244882;23;20012;-76
2023/06/06 10:50:53;;;;;;;4.22;3.53;;;;;;;31.33;28.04;101788.72;6195281;23;20478;-76
2023/06/06 10:53:19;;;;;;;4.07;3.67;;;;;;;31.23;28.49;101781.31;6194649;23;20008;-74
2023/06/06 10:55:45;;;;;;;5.25;3.83;;;;;;;31.08;30.33;101782.25;6194768;23;20443;-75
2023/06/06 10:58:34;;;;;;;6.80;4.00;;;;;;;31.48;29.63;101794.19;6220005;23;20016;-75
2023/06/06 11:01:06;;;;;;;6.03;3.58;;;;;;;31.59;28.36;101783.78;6244784;23;20015;-75
2023/06/06 11:03:39;;;;;;;4.60;3.93;;;;;;;31.46;27.95;101788.06;6195266;23;20099;-75
2023/06/06 11:06:13;;;;;;;6.07;4.07;;;;;;;30.88;29.72;101780.47;6245162;23;20075;-75
2023/06/06 11:08:46;;;;;;;6.13;3.63;;;;;;;31.07;28.50;101788.13;6220083;23;20011;-75
2023/06/06 11:11:15;;;;;;;5.68;3.97;;;;;;;30.81;30.14;101760.53;6194674;23;20015;-76
2023/06/06 11:13:57;;;;;;;5.25;4.45;;;;;;;30.88;30.18;101791.59;6219437;23;20388;-76
2023/06/06 11:16:38;;;;;;;4.47;3.65;;;;;;;31.49;27.95;101778.31;6219632;23;20008;-75
2023/06/06 11:19:08;;;;;;;5.25;4.60;;;;;;;31.36;29.37;101782.59;6219706;23;20008;-75
2023/06/06 11:21:38;;;;;;;6.03;4.45;;;;;;;31.30;28.70;101773.47;6219661;23;20018;-75
2023/06/06 11:24:04;;;;;;;4.53;3.72;;;;;;;31.41;28.40;101787.31;6219827;23;20000;-75
2023/06/06 11:26:30;;;;;;;4.85;3.85;;;;;;;31.56;28.79;101778.81;6194479;23;20058;-76
2023/06/06 11:28:56;;;;;;;5.00;3.95;;;;;;;32.21;28.99;101789.56;6194658;23;20338;-76